sensor_id;sensor_type;location;lat;lon;timestamp;pressure;altitude;pressure_sealevel;temperature;humidity
10732;BME280;5417;42.686;23.244;2023-04-15T00:00:35;93535.66;;;10.88;60.69
10732;BME280;5417;42.686;23.244;2023-04-15T00:03:04;93541.88;;;10.77;59.84
10732;BME280;5417;42.686;23.244;2023-04-15T00:05:31;93538.81;;;10.64;61.13
10732;BME280;5417;42.686;23.244;2023-04-15T00:08:22;93537.19;;;10.63;63.52
10732;BME280;5417;42.686;23.244;2023-04-15T00:10:49;93534.59;;;10.63;64.30
10732;BME280;5417;42.686;23.244;2023-04-15T00:13:17;93531.84;;;10.64;65.65
10732;BME280;5417;42.686;23.244;2023-04-15T00:15:46;93537.03;;;10.64;64.78
10732;BME280;5417;42.686;23.244;2023-04-15T00:18:13;93531.03;;;10.64;64.50
10732;BME280;5417;42.686;23.244;2023-04-15T00:20:46;93531.03;;;10.64;63.97
10732;BME280;5417;42.686;23.244;2023-04-15T00:26:19;93538.47;;;10.77;61.42
10732;BME280;5417;42.686;23.244;2023-04-15T00:29:06;93536.91;;;10.84;62.33
10732;BME280;5417;42.686;23.244;2023-04-15T00:32:15;93540.72;;;10.89;62.29
10732;BME280;5417;42.686;23.244;2023-04-15T00:34:43;93531.66;;;10.93;62.00
10732;BME280;5417;42.686;23.244;2023-04-15T00:37:10;93541.19;;;11.02;62.26
10732;BME280;5417;42.686;23.244;2023-04-15T00:39:47;93528.47;;;10.99;62.85
10732;BME280;5417;42.686;23.244;2023-04-15T00:52:02;93525.63;;;10.93;63.09
10732;BME280;5417;42.686;23.244;2023-04-15T00:54:28;93532.19;;;10.97;62.92
10732;BME280;5417;42.686;23.244;2023-04-15T00:56:55;93533.81;;;10.98;63.74
10732;BME280;5417;42.686;23.244;2023-04-15T00:59:23;93523.84;;;11.11;63.33
10732;BME280;5417;42.686;23.244;2023-04-15T01:01:50;93524.75;;;11.02;63.73
10732;BME280;5417;42.686;23.244;2023-04-15T01:04:17;93534.69;;;10.89;63.63
10732;BME280;5417;42.686;23.244;2023-04-15T01:09:48;93548.78;;;10.68;64.80
10732;BME280;5417;42.686;23.244;2023-04-15T01:12:38;93549.91;;;10.66;63.62
10732;BME280;5417;42.686;23.244;2023-04-15T01:16:21;93542.63;;;10.69;63.40
10732;BME280;5417;42.686;23.244;2023-04-15T01:18:29;93540.41;;;10.74;64.04
10732;BME280;5417;42.686;23.244;2023-04-15T01:20:57;93544.34;;;10.79;64.68
10732;BME280;5417;42.686;23.244;2023-04-15T01:23:26;93543.38;;;10.80;64.45
10732;BME280;5417;42.686;23.244;2023-04-15T01:25:55;93555.13;;;10.84;64.66
10732;BME280;5417;42.686;23.244;2023-04-15T01:35:01;93530.75;;;10.85;65.60
10732;BME280;5417;42.686;23.244;2023-04-15T01:37:49;93540.19;;;10.86;66.10
10732;BME280;5417;42.686;23.244;2023-04-15T01:40:16;93536.84;;;10.75;66.46
10732;BME280;5417;42.686;23.244;2023-04-15T01:42:44;93528.34;;;10.73;66.81
10732;BME280;5417;42.686;23.244;2023-04-15T01:52:06;93544.78;;;10.74;65.85
10732;BME280;5417;42.686;23.244;2023-04-15T02:01:09;93547.03;;;10.41;67.27
10732;BME280;5417;42.686;23.244;2023-04-15T02:03:36;93550.72;;;10.39;68.05
10732;BME280;5417;42.686;23.244;2023-04-15T02:09:21;93548.09;;;10.49;66.52
10732;BME280;5417;42.686;23.244;2023-04-15T02:12:20;93553.44;;;10.47;65.82
10732;BME280;5417;42.686;23.244;2023-04-15T02:15:01;93554.56;;;10.45;65.27
10732;BME280;5417;42.686;23.244;2023-04-15T02:17:29;93555.09;;;10.48;64.95
10732;BME280;5417;42.686;23.244;2023-04-15T02:20:20;93550.41;;;10.52;64.81
10732;BME280;5417;42.686;23.244;2023-04-15T02:23:07;93550.41;;;10.52;65.01
10732;BME280;5417;42.686;23.244;2023-04-15T02:29:10;93548.88;;;10.22;66.13
10732;BME280;5417;42.686;23.244;2023-04-15T02:31:37;93551.06;;;10.26;66.47
10732;BME280;5417;42.686;23.244;2023-04-15T02:34:07;93550.97;;;10.08;66.99
10732;BME280;5417;42.686;23.244;2023-04-15T02:37:47;93551.41;;;10.04;67.53
10732;BME280;5417;42.686;23.244;2023-04-15T02:40:26;93550.31;;;9.97;67.72
10732;BME280;5417;42.686;23.244;2023-04-15T02:42:55;93544.75;;;9.92;67.29
10732;BME280;5417;42.686;23.244;2023-04-15T02:45:22;93548.56;;;9.88;67.27
10732;BME280;5417;42.686;23.244;2023-04-15T02:47:51;93556.44;;;10.05;67.31
10732;BME280;5417;42.686;23.244;2023-04-15T02:50:20;93549.00;;;9.73;67.20
10732;BME280;5417;42.686;23.244;2023-04-15T02:56:52;93574.22;;;8.86;69.36
10732;BME280;5417;42.686;23.244;2023-04-15T02:59:20;93572.53;;;8.75;71.04
10732;BME280;5417;42.686;23.244;2023-04-15T03:01:47;93573.94;;;8.89;70.32
10732;BME280;5417;42.686;23.244;2023-04-15T03:04:14;93572.31;;;8.88;70.23
10732;BME280;5417;42.686;23.244;2023-04-15T03:06:57;93571.75;;;8.94;70.16
10732;BME280;5417;42.686;23.244;2023-04-15T03:09:25;93575.31;;;9.03;69.96
10732;BME280;5417;42.686;23.244;2023-04-15T03:11:52;93576.28;;;9.02;69.76
10732;BME280;5417;42.686;23.244;2023-04-15T03:14:19;93572.16;;;9.09;68.45
10732;BME280;5417;42.686;23.244;2023-04-15T03:16:46;93575.03;;;8.96;68.33
10732;BME280;5417;42.686;23.244;2023-04-15T03:19:14;93585.41;;;8.96;69.40
10732;BME280;5417;42.686;23.244;2023-04-15T03:21:41;93590.34;;;8.90;69.60
10732;BME280;5417;42.686;23.244;2023-04-15T03:27:38;93590.34;;;8.99;68.22
10732;BME280;5417;42.686;23.244;2023-04-15T03:30:34;93592.38;;;8.96;68.87
10732;BME280;5417;42.686;23.244;2023-04-15T03:33:09;93595.13;;;8.94;69.04
10732;BME280;5417;42.686;23.244;2023-04-15T03:36:42;93603.84;;;8.93;67.74
10732;BME280;5417;42.686;23.244;2023-04-15T03:39:05;93601.69;;;8.98;67.58
10732;BME280;5417;42.686;23.244;2023-04-15T03:42:20;93611.34;;;8.87;67.36
10732;BME280;5417;42.686;23.244;2023-04-15T03:44:47;93621.91;;;8.54;68.13
10732;BME280;5417;42.686;23.244;2023-04-15T03:48:05;93619.41;;;8.43;69.39
10732;BME280;5417;42.686;23.244;2023-04-15T03:51:10;93622.41;;;8.39;69.07
10732;BME280;5417;42.686;23.244;2023-04-15T03:53:36;93627.47;;;8.40;69.77
10732;BME280;5417;42.686;23.244;2023-04-15T03:56:04;93621.63;;;8.48;69.98
10732;BME280;5417;42.686;23.244;2023-04-15T03:58:41;93637.38;;;8.66;68.83
10732;BME280;5417;42.686;23.244;2023-04-15T04:01:09;93639.84;;;8.67;69.04
10732;BME280;5417;42.686;23.244;2023-04-15T04:03:36;93632.59;;;8.71;68.73
10732;BME280;5417;42.686;23.244;2023-04-15T04:06:03;93630.56;;;8.74;68.54
10732;BME280;5417;42.686;23.244;2023-04-15T04:08:44;93626.63;;;8.80;67.56
10732;BME280;5417;42.686;23.244;2023-04-15T04:11:11;93638.56;;;9.02;69.01
10732;BME280;5417;42.686;23.244;2023-04-15T04:13:38;93636.16;;;9.48;67.97
10732;BME280;5417;42.686;23.244;2023-04-15T04:16:05;93628.16;;;10.08;66.15
10732;BME280;5417;42.686;23.244;2023-04-15T04:18:55;93620.28;;;11.01;63.81
10732;BME280;5417;42.686;23.244;2023-04-15T04:24:24;93613.94;;;13.13;58.05
10732;BME280;5417;42.686;23.244;2023-04-15T04:26:56;93614.56;;;14.14;54.06
10732;BME280;5417;42.686;23.244;2023-04-15T04:29:23;93602.69;;;15.06;51.18
10732;BME280;5417;42.686;23.244;2023-04-15T04:32:15;93605.53;;;16.04;47.76
10732;BME280;5417;42.686;23.244;2023-04-15T04:35:15;93608.16;;;17.15;44.94
10732;BME280;5417;42.686;23.244;2023-04-15T04:37:42;93612.91;;;17.71;42.38
10732;BME280;5417;42.686;23.244;2023-04-15T04:40:10;93608.22;;;18.15;41.58
10732;BME280;5417;42.686;23.244;2023-04-15T04:42:37;93613.44;;;18.30;40.30
10732;BME280;5417;42.686;23.244;2023-04-15T04:45:42;93608.78;;;18.60;39.32
10732;BME280;5417;42.686;23.244;2023-04-15T04:48:09;93611.44;;;18.11;39.77
10732;BME280;5417;42.686;23.244;2023-04-15T04:50:37;93618.19;;;17.41;41.04
10732;BME280;5417;42.686;23.244;2023-04-15T04:53:04;93608.06;;;17.38;41.26
10732;BME280;5417;42.686;23.244;2023-04-15T04:56:01;93633.94;;;17.56;40.34
10732;BME280;5417;42.686;23.244;2023-04-15T04:59:08;93631.75;;;17.95;39.71
10732;BME280;5417;42.686;23.244;2023-04-15T05:01:35;93630.31;;;17.93;40.24
10732;BME280;5417;42.686;23.244;2023-04-15T05:04:01;93636.28;;;18.23;39.45
10732;BME280;5417;42.686;23.244;2023-04-15T05:06:48;93634.13;;;17.54;40.70
10732;BME280;5417;42.686;23.244;2023-04-15T05:09:15;93631.81;;;17.45;40.97
10732;BME280;5417;42.686;23.244;2023-04-15T05:11:42;93644.38;;;16.98;41.64
10732;BME280;5417;42.686;23.244;2023-04-15T05:14:09;93653.09;;;17.50;41.77
10732;BME280;5417;42.686;23.244;2023-04-15T05:16:35;93662.03;;;17.34;41.64
10732;BME280;5417;42.686;23.244;2023-04-15T05:19:02;93657.16;;;17.67;40.63
10732;BME280;5417;42.686;23.244;2023-04-15T05:21:59;93663.16;;;18.40;39.45
10732;BME280;5417;42.686;23.244;2023-04-15T05:24:28;93656.84;;;19.52;37.71
10732;BME280;5417;42.686;23.244;2023-04-15T05:26:54;93654.22;;;20.33;36.36
10732;BME280;5417;42.686;23.244;2023-04-15T05:29:21;93652.34;;;21.20;34.99
10732;BME280;5417;42.686;23.244;2023-04-15T05:31:48;93633.38;;;21.87;33.28
10732;BME280;5417;42.686;23.244;2023-04-15T05:34:40;93636.06;;;22.50;32.13
10732;BME280;5417;42.686;23.244;2023-04-15T05:37:07;93640.66;;;22.86;30.98
10732;BME280;5417;42.686;23.244;2023-04-15T05:39:36;93647.97;;;23.16;30.65
10732;BME280;5417;42.686;23.244;2023-04-15T05:42:05;93648.88;;;23.46;30.76
10732;BME280;5417;42.686;23.244;2023-04-15T05:45:12;93646.25;;;23.40;30.42
10732;BME280;5417;42.686;23.244;2023-04-15T05:47:41;93656.88;;;23.65;30.29
10732;BME280;5417;42.686;23.244;2023-04-15T05:50:09;93650.97;;;23.92;29.64
10732;BME280;5417;42.686;23.244;2023-04-15T05:52:36;93648.19;;;23.87;30.02
10732;BME280;5417;42.686;23.244;2023-04-15T05:58:06;93653.84;;;23.61;31.24
10732;BME280;5417;42.686;23.244;2023-04-15T06:00:56;93650.72;;;23.46;30.70
10732;BME280;5417;42.686;23.244;2023-04-15T06:04:06;93659.31;;;23.23;31.06
10732;BME280;5417;42.686;23.244;2023-04-15T06:06:46;93659.28;;;22.23;32.27
10732;BME280;5417;42.686;23.244;2023-04-15T06:09:34;93670.69;;;22.24;32.67
10732;BME280;5417;42.686;23.244;2023-04-15T06:12:55;93661.09;;;21.20;34.93
10732;BME280;5417;42.686;23.244;2023-04-15T06:15:16;93656.53;;;21.60;35.07
10732;BME280;5417;42.686;23.244;2023-04-15T06:17:44;93667.88;;;20.43;35.58
10732;BME280;5417;42.686;23.244;2023-04-15T06:23:52;93670.81;;;19.94;36.82
10732;BME280;5417;42.686;23.244;2023-04-15T06:26:21;93688.47;;;19.87;37.87
10732;BME280;5417;42.686;23.244;2023-04-15T06:29:42;93691.34;;;19.99;37.05
10732;BME280;5417;42.686;23.244;2023-04-15T06:32:03;93697.69;;;19.63;37.83
10732;BME280;5417;42.686;23.244;2023-04-15T06:35:24;93689.25;;;19.81;39.18
10732;BME280;5417;42.686;23.244;2023-04-15T06:37:44;93715.44;;;18.79;40.56
10732;BME280;5417;42.686;23.244;2023-04-15T06:40:11;93704.53;;;18.88;39.82
10732;BME280;5417;42.686;23.244;2023-04-15T06:42:43;93707.66;;;18.99;39.46
10732;BME280;5417;42.686;23.244;2023-04-15T06:45:10;93707.91;;;19.38;39.89
10732;BME280;5417;42.686;23.244;2023-04-15T06:47:39;93708.84;;;19.59;37.46
10732;BME280;5417;42.686;23.244;2023-04-15T06:50:07;93709.34;;;17.63;41.06
10732;BME280;5417;42.686;23.244;2023-04-15T06:52:34;93707.72;;;17.48;42.59
10732;BME280;5417;42.686;23.244;2023-04-15T06:55:01;93714.19;;;17.30;43.23
10732;BME280;5417;42.686;23.244;2023-04-15T06:57:28;93710.06;;;17.57;43.41
10732;BME280;5417;42.686;23.244;2023-04-15T06:59:55;93714.97;;;18.11;40.76
10732;BME280;5417;42.686;23.244;2023-04-15T07:02:26;93698.47;;;18.67;38.64
10732;BME280;5417;42.686;23.244;2023-04-15T07:05:16;93690.25;;;19.39;36.68
10732;BME280;5417;42.686;23.244;2023-04-15T07:07:43;93702.91;;;19.91;36.06
10732;BME280;5417;42.686;23.244;2023-04-15T07:10:10;93700.72;;;20.14;35.20
10732;BME280;5417;42.686;23.244;2023-04-15T07:12:41;93704.84;;;20.37;35.14
10732;BME280;5417;42.686;23.244;2023-04-15T07:15:33;93703.47;;;20.74;34.17
10732;BME280;5417;42.686;23.244;2023-04-15T07:18:00;93699.59;;;20.96;32.91
10732;BME280;5417;42.686;23.244;2023-04-15T07:23:28;93706.72;;;21.09;32.81
10732;BME280;5417;42.686;23.244;2023-04-15T07:25:55;93706.53;;;20.91;32.18
10732;BME280;5417;42.686;23.244;2023-04-15T07:28:23;93708.94;;;21.12;32.91
10732;BME280;5417;42.686;23.244;2023-04-15T07:30:49;93703.63;;;21.32;32.67
10732;BME280;5417;42.686;23.244;2023-04-15T07:33:16;93705.88;;;21.41;32.75
10732;BME280;5417;42.686;23.244;2023-04-15T07:35:43;93704.44;;;21.46;32.54
10732;BME280;5417;42.686;23.244;2023-04-15T07:41:58;93688.72;;;21.57;32.52
10732;BME280;5417;42.686;23.244;2023-04-15T07:45:36;93712.28;;;21.79;31.84
10732;BME280;5417;42.686;23.244;2023-04-15T07:47:38;93703.72;;;21.77;30.75
10732;BME280;5417;42.686;23.244;2023-04-15T07:50:06;93702.09;;;21.76;31.52
10732;BME280;5417;42.686;23.244;2023-04-15T07:52:33;93712.28;;;21.85;31.33
10732;BME280;5417;42.686;23.244;2023-04-15T07:55:58;93713.41;;;21.51;32.03
10732;BME280;5417;42.686;23.244;2023-04-15T08:01:50;93720.28;;;21.65;32.61
10732;BME280;5417;42.686;23.244;2023-04-15T08:04:17;93727.75;;;21.82;32.18
10732;BME280;5417;42.686;23.244;2023-04-15T08:06:44;93727.13;;;21.80;30.96
10732;BME280;5417;42.686;23.244;2023-04-15T08:09:12;93726.94;;;21.88;31.45
10732;BME280;5417;42.686;23.244;2023-04-15T08:11:39;93733.13;;;21.62;30.69
10732;BME280;5417;42.686;23.244;2023-04-15T08:15:14;93731.28;;;21.62;30.25
10732;BME280;5417;42.686;23.244;2023-04-15T08:17:51;93729.69;;;21.22;30.54
10732;BME280;5417;42.686;23.244;2023-04-15T08:24:03;93736.63;;;20.57;32.53
10732;BME280;5417;42.686;23.244;2023-04-15T08:27:05;93738.59;;;20.35;32.78
10732;BME280;5417;42.686;23.244;2023-04-15T08:29:52;93731.59;;;20.14;33.22
10732;BME280;5417;42.686;23.244;2023-04-15T08:32:42;93733.19;;;20.02;32.84
10732;BME280;5417;42.686;23.244;2023-04-15T08:35:35;93737.81;;;19.80;33.70
10732;BME280;5417;42.686;23.244;2023-04-15T08:40:25;93725.16;;;19.34;33.37
10732;BME280;5417;42.686;23.244;2023-04-15T08:46:31;93722.97;;;19.16;34.43
10732;BME280;5417;42.686;23.244;2023-04-15T08:47:54;93730.00;;;19.31;34.43
10732;BME280;5417;42.686;23.244;2023-04-15T08:50:23;93731.03;;;19.36;33.67
10732;BME280;5417;42.686;23.244;2023-04-15T08:52:58;93722.50;;;19.69;34.24
10732;BME280;5417;42.686;23.244;2023-04-15T08:55:29;93705.75;;;19.96;32.76
10732;BME280;5417;42.686;23.244;2023-04-15T08:58:00;93716.75;;;20.06;32.20
10732;BME280;5417;42.686;23.244;2023-04-15T09:00:27;93713.94;;;20.21;32.52
10732;BME280;5417;42.686;23.244;2023-04-15T09:02:57;93727.13;;;20.08;31.25
10732;BME280;5417;42.686;23.244;2023-04-15T09:05:24;93708.84;;;20.20;31.33
10732;BME280;5417;42.686;23.244;2023-04-15T09:07:53;93703.75;;;20.11;32.28
10732;BME280;5417;42.686;23.244;2023-04-15T09:10:20;93703.56;;;20.26;31.95
10732;BME280;5417;42.686;23.244;2023-04-15T09:12:48;93706.88;;;20.35;32.31
10732;BME280;5417;42.686;23.244;2023-04-15T09:15:17;93686.56;;;20.42;31.03
10732;BME280;5417;42.686;23.244;2023-04-15T09:17:44;93695.13;;;20.51;32.20
10732;BME280;5417;42.686;23.244;2023-04-15T09:20:14;93696.94;;;20.50;31.62
10732;BME280;5417;42.686;23.244;2023-04-15T09:22:45;93686.59;;;20.55;30.57
10732;BME280;5417;42.686;23.244;2023-04-15T09:25:25;93686.19;;;20.65;29.80
10732;BME280;5417;42.686;23.244;2023-04-15T09:27:54;93690.44;;;20.53;28.97
10732;BME280;5417;42.686;23.244;2023-04-15T09:30:22;93690.44;;;20.39;29.29
10732;BME280;5417;42.686;23.244;2023-04-15T09:32:49;93705.66;;;20.37;29.64
10732;BME280;5417;42.686;23.244;2023-04-15T09:35:19;93706.91;;;20.41;28.85
10732;BME280;5417;42.686;23.244;2023-04-15T09:38:09;93690.19;;;20.34;29.81
10732;BME280;5417;42.686;23.244;2023-04-15T09:40:42;93675.91;;;20.15;30.03
10732;BME280;5417;42.686;23.244;2023-04-15T09:43:17;93689.44;;;20.47;31.22
10732;BME280;5417;42.686;23.244;2023-04-15T09:45:49;93688.41;;;20.41;29.14
10732;BME280;5417;42.686;23.244;2023-04-15T09:48:36;93697.06;;;20.29;29.20
10732;BME280;5417;42.686;23.244;2023-04-15T09:51:04;93695.28;;;20.36;29.67
10732;BME280;5417;42.686;23.244;2023-04-15T09:53:33;93698.94;;;20.35;29.84
10732;BME280;5417;42.686;23.244;2023-04-15T09:56:07;93687.50;;;20.14;28.77
10732;BME280;5417;42.686;23.244;2023-04-15T09:58:34;93698.03;;;19.95;28.33
10732;BME280;5417;42.686;23.244;2023-04-15T10:01:05;93699.19;;;19.79;29.55
10732;BME280;5417;42.686;23.244;2023-04-15T10:03:34;93695.25;;;19.62;28.71
10732;BME280;5417;42.686;23.244;2023-04-15T10:06:05;93699.22;;;19.44;28.08
10732;BME280;5417;42.686;23.244;2023-04-15T10:08:33;93708.09;;;19.37;28.40
10732;BME280;5417;42.686;23.244;2023-04-15T10:11:03;93694.88;;;19.30;28.62
10732;BME280;5417;42.686;23.244;2023-04-15T10:13:31;93701.41;;;19.34;29.58
10732;BME280;5417;42.686;23.244;2023-04-15T10:16:07;93705.56;;;19.22;29.13
10732;BME280;5417;42.686;23.244;2023-04-15T10:18:42;93694.00;;;19.23;29.39
10732;BME280;5417;42.686;23.244;2023-04-15T10:21:11;93687.34;;;19.27;29.58
10732;BME280;5417;42.686;23.244;2023-04-15T10:23:40;93686.97;;;19.30;28.71
10732;BME280;5417;42.686;23.244;2023-04-15T10:26:07;93674.88;;;19.14;28.69
10732;BME280;5417;42.686;23.244;2023-04-15T10:28:37;93678.38;;;19.21;29.81
10732;BME280;5417;42.686;23.244;2023-04-15T10:31:04;93669.63;;;19.21;29.99
10732;BME280;5417;42.686;23.244;2023-04-15T10:33:35;93668.72;;;19.35;29.91
10732;BME280;5417;42.686;23.244;2023-04-15T10:36:03;93677.06;;;19.39;29.76
10732;BME280;5417;42.686;23.244;2023-04-15T10:38:37;93670.16;;;19.38;30.85
10732;BME280;5417;42.686;23.244;2023-04-15T10:41:18;93673.81;;;19.37;30.91
10732;BME280;5417;42.686;23.244;2023-04-15T10:43:48;93671.41;;;19.48;31.59
10732;BME280;5417;42.686;23.244;2023-04-15T10:46:20;93673.50;;;19.60;31.20
10732;BME280;5417;42.686;23.244;2023-04-15T10:48:50;93668.16;;;19.46;30.86
10732;BME280;5417;42.686;23.244;2023-04-15T10:51:26;93632.25;;;19.11;30.64
10732;BME280;5417;42.686;23.244;2023-04-15T10:53:57;93661.97;;;19.26;31.08
10732;BME280;5417;42.686;23.244;2023-04-15T10:56:26;93669.56;;;19.42;32.49
10732;BME280;5417;42.686;23.244;2023-04-15T10:58:53;93658.00;;;19.43;31.36
10732;BME280;5417;42.686;23.244;2023-04-15T11:01:21;93660.50;;;19.58;31.52
10732;BME280;5417;42.686;23.244;2023-04-15T11:03:48;93655.66;;;19.62;31.41
10732;BME280;5417;42.686;23.244;2023-04-15T11:06:18;93644.25;;;19.54;32.02
10732;BME280;5417;42.686;23.244;2023-04-15T11:08:57;93652.78;;;19.57;31.16
10732;BME280;5417;42.686;23.244;2023-04-15T11:12:04;93654.84;;;19.61;31.57
10732;BME280;5417;42.686;23.244;2023-04-15T11:14:32;93652.22;;;19.68;31.70
10732;BME280;5417;42.686;23.244;2023-04-15T11:17:00;93640.03;;;19.67;31.25
10732;BME280;5417;42.686;23.244;2023-04-15T11:19:35;93647.97;;;19.73;30.87
10732;BME280;5417;42.686;23.244;2023-04-15T11:22:06;93643.91;;;19.71;30.37
10732;BME280;5417;42.686;23.244;2023-04-15T11:24:34;93637.78;;;19.64;30.65
10732;BME280;5417;42.686;23.244;2023-04-15T11:27:01;93641.88;;;19.73;30.99
10732;BME280;5417;42.686;23.244;2023-04-15T11:29:29;93648.53;;;19.62;29.75
10732;BME280;5417;42.686;23.244;2023-04-15T11:32:04;93638.28;;;19.39;29.21
10732;BME280;5417;42.686;23.244;2023-04-15T11:34:31;93648.63;;;19.34;29.97
10732;BME280;5417;42.686;23.244;2023-04-15T11:37:03;93660.63;;;19.43;30.87
10732;BME280;5417;42.686;23.244;2023-04-15T11:39:30;93658.59;;;19.39;28.77
10732;BME280;5417;42.686;23.244;2023-04-15T11:41:58;93642.94;;;19.37;29.25
10732;BME280;5417;42.686;23.244;2023-04-15T11:44:25;93660.00;;;19.41;29.19
10732;BME280;5417;42.686;23.244;2023-04-15T11:46:51;93653.94;;;19.47;29.16
10732;BME280;5417;42.686;23.244;2023-04-15T11:49:30;93657.66;;;19.53;29.58
10732;BME280;5417;42.686;23.244;2023-04-15T11:51:58;93653.19;;;19.53;30.25
10732;BME280;5417;42.686;23.244;2023-04-15T11:54:25;93659.31;;;19.61;31.56
10732;BME280;5417;42.686;23.244;2023-04-15T11:56:52;93656.66;;;19.61;29.69
10732;BME280;5417;42.686;23.244;2023-04-15T11:59:20;93655.25;;;19.65;29.96
10732;BME280;5417;42.686;23.244;2023-04-15T12:01:47;93654.25;;;19.72;29.69
10732;BME280;5417;42.686;23.244;2023-04-15T12:04:15;93654.06;;;19.74;30.46
10732;BME280;5417;42.686;23.244;2023-04-15T12:06:44;93646.13;;;19.74;28.76
10732;BME280;5417;42.686;23.244;2023-04-15T12:09:12;93646.38;;;19.79;29.25
10732;BME280;5417;42.686;23.244;2023-04-15T12:11:44;93643.97;;;19.84;29.97
10732;BME280;5417;42.686;23.244;2023-04-15T12:14:24;93656.19;;;19.98;29.94
10732;BME280;5417;42.686;23.244;2023-04-15T12:16:56;93648.22;;;19.78;25.97
10732;BME280;5417;42.686;23.244;2023-04-15T12:19:26;93644.94;;;19.76;26.16
10732;BME280;5417;42.686;23.244;2023-04-15T12:21:57;93640.66;;;19.75;27.02
10732;BME280;5417;42.686;23.244;2023-04-15T12:24:25;93643.34;;;19.82;27.52
10732;BME280;5417;42.686;23.244;2023-04-15T12:26:53;93641.84;;;19.60;29.50
10732;BME280;5417;42.686;23.244;2023-04-15T12:29:26;93656.66;;;19.54;29.24
10732;BME280;5417;42.686;23.244;2023-04-15T12:31:55;93649.09;;;19.51;29.15
10732;BME280;5417;42.686;23.244;2023-04-15T12:34:27;93650.34;;;19.55;28.77
10732;BME280;5417;42.686;23.244;2023-04-15T12:36:54;93653.56;;;19.50;28.78
10732;BME280;5417;42.686;23.244;2023-04-15T12:39:22;93658.88;;;19.57;29.05
10732;BME280;5417;42.686;23.244;2023-04-15T12:41:49;93661.94;;;19.61;29.20
10732;BME280;5417;42.686;23.244;2023-04-15T12:44:17;93653.00;;;19.62;27.87
10732;BME280;5417;42.686;23.244;2023-04-15T12:46:45;93651.78;;;19.58;28.68
10732;BME280;5417;42.686;23.244;2023-04-15T12:49:12;93662.53;;;19.56;27.64
10732;BME280;5417;42.686;23.244;2023-04-15T12:51:40;93651.59;;;19.66;27.77
10732;BME280;5417;42.686;23.244;2023-04-15T12:54:07;93654.66;;;19.69;27.00
10732;BME280;5417;42.686;23.244;2023-04-15T12:56:34;93643.69;;;19.72;28.20
10732;BME280;5417;42.686;23.244;2023-04-15T12:59:03;93666.91;;;19.83;27.87
10732;BME280;5417;42.686;23.244;2023-04-15T13:01:30;93660.22;;;19.81;29.20
10732;BME280;5417;42.686;23.244;2023-04-15T13:03:58;93661.03;;;19.81;29.91
10732;BME280;5417;42.686;23.244;2023-04-15T13:06:25;93657.38;;;19.82;29.70
10732;BME280;5417;42.686;23.244;2023-04-15T13:08:53;93654.94;;;19.88;29.94
10732;BME280;5417;42.686;23.244;2023-04-15T13:11:21;93652.50;;;19.93;29.15
10732;BME280;5417;42.686;23.244;2023-04-15T13:13:48;93658.19;;;19.83;28.53
10732;BME280;5417;42.686;23.244;2023-04-15T13:16:16;93660.81;;;19.83;28.43
10732;BME280;5417;42.686;23.244;2023-04-15T13:18:43;93652.09;;;19.82;27.72
10732;BME280;5417;42.686;23.244;2023-04-15T13:21:12;93657.97;;;19.78;28.73
10732;BME280;5417;42.686;23.244;2023-04-15T13:23:40;93655.31;;;19.78;28.35
10732;BME280;5417;42.686;23.244;2023-04-15T13:26:07;93654.06;;;19.74;28.77
10732;BME280;5417;42.686;23.244;2023-04-15T13:28:34;93638.50;;;19.44;29.01
10732;BME280;5417;42.686;23.244;2023-04-15T13:31:01;93650.28;;;19.42;30.06
10732;BME280;5417;42.686;23.244;2023-04-15T13:33:28;93652.69;;;19.37;29.24
10732;BME280;5417;42.686;23.244;2023-04-15T13:35:55;93653.91;;;19.41;29.03
10732;BME280;5417;42.686;23.244;2023-04-15T13:38:23;93660.09;;;19.54;29.36
10732;BME280;5417;42.686;23.244;2023-04-15T13:40:51;93652.38;;;19.53;29.05
10732;BME280;5417;42.686;23.244;2023-04-15T13:43:17;93651.16;;;19.56;28.64
10732;BME280;5417;42.686;23.244;2023-04-15T13:45:46;93639.41;;;19.65;29.69
10732;BME280;5417;42.686;23.244;2023-04-15T13:48:16;93637.00;;;19.70;29.29
10732;BME280;5417;42.686;23.244;2023-04-15T13:50:43;93625.22;;;19.72;28.74
10732;BME280;5417;42.686;23.244;2023-04-15T13:53:10;93642.13;;;19.78;28.93
10732;BME280;5417;42.686;23.244;2023-04-15T13:55:38;93641.09;;;19.79;28.78
10732;BME280;5417;42.686;23.244;2023-04-15T13:58:07;93638.25;;;19.80;28.21
10732;BME280;5417;42.686;23.244;2023-04-15T14:00:38;93634.97;;;19.72;28.46
10732;BME280;5417;42.686;23.244;2023-04-15T14:03:07;93633.66;;;19.48;28.44
10732;BME280;5417;42.686;23.244;2023-04-15T14:05:34;93629.22;;;19.55;28.91
10732;BME280;5417;42.686;23.244;2023-04-15T14:08:00;93619.91;;;19.59;28.90
10732;BME280;5417;42.686;23.244;2023-04-15T14:10:27;93626.81;;;19.67;28.83
10732;BME280;5417;42.686;23.244;2023-04-15T14:12:56;93624.78;;;19.56;28.51
10732;BME280;5417;42.686;23.244;2023-04-15T14:15:27;93628.63;;;19.53;28.67
10732;BME280;5417;42.686;23.244;2023-04-15T14:17:58;93626.78;;;19.53;28.97
10732;BME280;5417;42.686;23.244;2023-04-15T14:20:42;93629.44;;;19.53;29.40
10732;BME280;5417;42.686;23.244;2023-04-15T14:23:09;93626.78;;;19.53;29.13
10732;BME280;5417;42.686;23.244;2023-04-15T14:25:39;93624.16;;;19.53;29.17
10732;BME280;5417;42.686;23.244;2023-04-15T14:28:08;93622.31;;;19.54;29.18
10732;BME280;5417;42.686;23.244;2023-04-15T14:30:34;93608.94;;;19.56;29.04
10732;BME280;5417;42.686;23.244;2023-04-15T14:33:01;93622.34;;;19.61;29.28
10732;BME280;5417;42.686;23.244;2023-04-15T14:35:42;93618.88;;;19.53;29.07
10732;BME280;5417;42.686;23.244;2023-04-15T14:38:09;93620.84;;;19.45;29.10
10732;BME280;5417;42.686;23.244;2023-04-15T14:43:36;93621.03;;;19.43;29.54
10732;BME280;5417;42.686;23.244;2023-04-15T14:46:07;93619.22;;;19.44;29.08
10732;BME280;5417;42.686;23.244;2023-04-15T14:48:41;93621.03;;;19.43;29.64
10732;BME280;5417;42.686;23.244;2023-04-15T14:51:13;93615.38;;;19.46;28.93
10732;BME280;5417;42.686;23.244;2023-04-15T14:56:26;93624.84;;;19.28;29.14
10732;BME280;5417;42.686;23.244;2023-04-15T14:58:55;93616.94;;;19.34;29.32